Black River (Missouri), Williamsville (07062575)

StateMissouriLatestLow (922 cfs)
RiverBlack RiverRatingObservedEstimated
Updated2020-08-14 5:30 (46 minutes ago)Flood - The river is flooding. Obstacles can be treacherous or deadly. The river should be avoided at this stage for casual trips and definitely for the inexperienced. Trips should be attempted only with protective gear and equipment.Flood(none)4990
Discharge922 cfs (median: 462 cfs)High - The river is high and potentially dangerous, especially for the young and / or inexperienced. Normal stream obstacles are sometimes difficult to navigate. Extended distances can be attempted, but canoe travel may not be advisable.High(none)2640
Height4.22 feetGood - Conditions are ideal for a canoe or kayak. Boats typically will drag on fewer than one-quarter of riffles, if at all, and portages are unnecessary or rare. Normal float lengths can be attempted without a problem.Good(none)1928
TrendSteady (falling over 24 hours)Low - River is low but can still be floated. Some riffles are okay but most come with significant dragging and might need a portage. Float lengths should be reduced to accommodate low flow, dragging, and portages.Low(none)641
USGSExternal icon USGS Site (External icon Google Maps)Poor - River is too low to float comfortably. Most or all riffles will drag or must be portaged and some obstacles (such as slick shelf rock) cause undue problems. Avoid the river at this stage for casual paddling trips.Poor(none)289

Trending Data

Plot Image

Trips for Black River (Missouri), Williamsville (07062575)

DateStartEndDistanceConditionDischargeHeightFishingDetails

A total of 0 rows are displayed.

Condition Descriptions

Fishing Conditions

Fish Species

Notes

Classic Trip List

The classic River Trips application is still available for use. It is updated with the new system using a data retrofit. It is no longer maintained. The original River Trips application is no longer updated (as of 1 Dec 2016) but can be checked for errors or for the condition of the data before it was converted to the new system.

Gauge Data Table

ObservationHeightDischargeMaximum
Discharge
Minimum
Discharge
Mean
Discharge
P05P10P20P25P50
(Median)
P75P80P90P95
2020-08-14 05:30 4.22 922 3770 (2013) 240 (2012) 1090 274 360 372 462 1640 2560 3660
2020-08-14 04:30 4.22 922 3770 (2013) 240 (2012) 1090 274 360 372 462 1640 2560 3660
2020-08-14 03:30 4.22 922 3770 (2013) 240 (2012) 1090 274 360 372 462 1640 2560 3660
2020-08-14 02:30 4.23 929 3770 (2013) 240 (2012) 1090 274 360 372 462 1640 2560 3660
2020-08-14 01:30 4.23 929 3770 (2013) 240 (2012) 1090 274 360 372 462 1640 2560 3660
2020-08-14 00:30 4.24 935 3770 (2013) 240 (2012) 1090 274 360 372 462 1640 2560 3660
2020-08-13 23:30 4.24 935 3690 (2013) 240 (2012) 918 275 360 370 495 1150 1600 3190
2020-08-13 22:30 4.25 941 3690 (2013) 240 (2012) 918 275 360 370 495 1150 1600 3190
2020-08-13 21:30 4.26 948 3690 (2013) 240 (2012) 918 275 360 370 495 1150 1600 3190
2020-08-13 20:30 4.27 954 3690 (2013) 240 (2012) 918 275 360 370 495 1150 1600 3190
2020-08-13 19:30 4.27 954 3690 (2013) 240 (2012) 918 275 360 370 495 1150 1600 3190
2020-08-13 18:30 4.29 967 3690 (2013) 240 (2012) 918 275 360 370 495 1150 1600 3190
2020-08-13 17:30 4.30 973 3690 (2013) 240 (2012) 918 275 360 370 495 1150 1600 3190
2020-08-13 16:30 4.31 979 3690 (2013) 240 (2012) 918 275 360 370 495 1150 1600 3190
2020-08-13 15:30 4.32 986 3690 (2013) 240 (2012) 918 275 360 370 495 1150 1600 3190
2020-08-13 14:30 4.33 992 3690 (2013) 240 (2012) 918 275 360 370 495 1150 1600 3190
2020-08-13 13:30 4.35 1010 3690 (2013) 240 (2012) 918 275 360 370 495 1150 1600 3190
2020-08-13 12:30 4.36 1010 3690 (2013) 240 (2012) 918 275 360 370 495 1150 1600 3190
2020-08-13 11:30 4.38 1020 3690 (2013) 240 (2012) 918 275 360 370 495 1150 1600 3190
2020-08-13 10:30 4.39 1030 3690 (2013) 240 (2012) 918 275 360 370 495 1150 1600 3190
2020-08-13 09:30 4.41 1040 3690 (2013) 240 (2012) 918 275 360 370 495 1150 1600 3190
2020-08-13 08:30 4.43 1060 3690 (2013) 240 (2012) 918 275 360 370 495 1150 1600 3190
2020-08-13 07:30 4.44 1060 3690 (2013) 240 (2012) 918 275 360 370 495 1150 1600 3190
2020-08-13 06:30 4.46 1080 3690 (2013) 240 (2012) 918 275 360 370 495 1150 1600 3190
2020-08-13 05:30 4.48 1090 3690 (2013) 240 (2012) 918 275 360 370 495 1150 1600 3190
2020-08-13 04:30 4.49 1100 3690 (2013) 240 (2012) 918 275 360 370 495 1150 1600 3190
2020-08-13 03:30 4.47 1080 3690 (2013) 240 (2012) 918 275 360 370 495 1150 1600 3190
2020-08-13 02:30 4.43 1060 3690 (2013) 240 (2012) 918 275 360 370 495 1150 1600 3190
2020-08-13 01:30 4.45 1070 3690 (2013) 240 (2012) 918 275 360 370 495 1150 1600 3190
2020-08-13 00:30 4.51 1110 3690 (2013) 240 (2012) 918 275 360 370 495 1150 1600 3190
2020-08-12 23:30 4.59 1160 3500 (2013) 239 (2012) 841 276 383 397 439 761 1280 3040
2020-08-12 22:30 4.70 1240 3500 (2013) 239 (2012) 841 276 383 397 439 761 1280 3040
2020-08-12 21:30 4.86 1350 3500 (2013) 239 (2012) 841 276 383 397 439 761 1280 3040
2020-08-12 20:30 5.17 1580 3500 (2013) 239 (2012) 841 276 383 397 439 761 1280 3040
2020-08-12 19:30 5.68 1970 3500 (2013) 239 (2012) 841 276 383 397 439 761 1280 3040
2020-08-12 18:30 5.40 1750 3500 (2013) 239 (2012) 841 276 383 397 439 761 1280 3040
2020-08-12 17:30 4.41 1040 3500 (2013) 239 (2012) 841 276 383 397 439 761 1280 3040
2020-08-12 16:30 4.05 819 3500 (2013) 239 (2012) 841 276 383 397 439 761 1280 3040
2020-08-12 15:30 4.03 807 3500 (2013) 239 (2012) 841 276 383 397 439 761 1280 3040
2020-08-12 14:30 4.03 807 3500 (2013) 239 (2012) 841 276 383 397 439 761 1280 3040
2020-08-12 13:30 4.03 807 3500 (2013) 239 (2012) 841 276 383 397 439 761 1280 3040
2020-08-12 12:30 4.04 813 3500 (2013) 239 (2012) 841 276 383 397 439 761 1280 3040
2020-08-12 11:30 4.05 819 3500 (2013) 239 (2012) 841 276 383 397 439 761 1280 3040
2020-08-12 10:30 4.05 819 3500 (2013) 239 (2012) 841 276 383 397 439 761 1280 3040
2020-08-12 09:30 4.06 825 3500 (2013) 239 (2012) 841 276 383 397 439 761 1280 3040
2020-08-12 08:30 4.07 831 3500 (2013) 239 (2012) 841 276 383 397 439 761 1280 3040
2020-08-12 07:30 4.08 837 3500 (2013) 239 (2012) 841 276 383 397 439 761 1280 3040
2020-08-12 06:30 4.09 843 3500 (2013) 239 (2012) 841 276 383 397 439 761 1280 3040
2020-08-12 05:30 4.10 849 3500 (2013) 239 (2012) 841 276 383 397 439 761 1280 3040
2020-08-12 04:30 4.12 861 3500 (2013) 239 (2012) 841 276 383 397 439 761 1280 3040
2020-08-12 03:30 4.13 867 3500 (2013) 239 (2012) 841 276 383 397 439 761 1280 3040
2020-08-12 02:30 4.15 879 3500 (2013) 239 (2012) 841 276 383 397 439 761 1280 3040
2020-08-12 01:30 4.18 898 3500 (2013) 239 (2012) 841 276 383 397 439 761 1280 3040
2020-08-12 00:30 4.20 910 3500 (2013) 239 (2012) 841 276 383 397 439 761 1280 3040
2020-08-11 23:30 4.24 935 3140 (2013) 239 (2012) 736 276 384 399 438 780 934 2520
2020-08-11 22:30 4.27 954 3140 (2013) 239 (2012) 736 276 384 399 438 780 934 2520
2020-08-11 21:30 4.32 986 3140 (2013) 239 (2012) 736 276 384 399 438 780 934 2520
2020-08-11 20:30 4.38 1020 3140 (2013) 239 (2012) 736 276 384 399 438 780 934 2520
2020-08-11 19:30 4.45 1070 3140 (2013) 239 (2012) 736 276 384 399 438 780 934 2520
2020-08-11 18:30 4.54 1130 3140 (2013) 239 (2012) 736 276 384 399 438 780 934 2520
2020-08-11 17:30 4.63 1190 3140 (2013) 239 (2012) 736 276 384 399 438 780 934 2520
2020-08-11 16:30 4.72 1250 3140 (2013) 239 (2012) 736 276 384 399 438 780 934 2520
2020-08-11 15:30 4.82 1320 3140 (2013) 239 (2012) 736 276 384 399 438 780 934 2520
2020-08-11 14:30 4.94 1410 3140 (2013) 239 (2012) 736 276 384 399 438 780 934 2520
2020-08-11 13:30 4.94 1410 3140 (2013) 239 (2012) 736 276 384 399 438 780 934 2520
2020-08-11 12:30 4.61 1180 3140 (2013) 239 (2012) 736 276 384 399 438 780 934 2520
2020-08-11 11:30 4.45 1070 3140 (2013) 239 (2012) 736 276 384 399 438 780 934 2520
2020-08-11 10:30 4.46 1080 3140 (2013) 239 (2012) 736 276 384 399 438 780 934 2520
2020-08-11 09:30 4.46 1080 3140 (2013) 239 (2012) 736 276 384 399 438 780 934 2520
2020-08-11 08:30 4.47 1080 3140 (2013) 239 (2012) 736 276 384 399 438 780 934 2520
2020-08-11 07:30 4.48 1090 3140 (2013) 239 (2012) 736 276 384 399 438 780 934 2520
2020-08-11 06:30 4.48 1090 3140 (2013) 239 (2012) 736 276 384 399 438 780 934 2520
2020-08-11 05:30 4.49 1100 3140 (2013) 239 (2012) 736 276 384 399 438 780 934 2520
2020-08-11 04:30 4.50 1100 3140 (2013) 239 (2012) 736 276 384 399 438 780 934 2520
2020-08-11 03:30 4.51 1110 3140 (2013) 239 (2012) 736 276 384 399 438 780 934 2520
2020-08-11 02:30 4.52 1120 3140 (2013) 239 (2012) 736 276 384 399 438 780 934 2520
2020-08-11 01:30 4.54 1130 3140 (2013) 239 (2012) 736 276 384 399 438 780 934 2520
2020-08-11 00:30 4.56 1140 3140 (2013) 239 (2012) 736 276 384 399 438 780 934 2520

A total of 78 rows are displayed for years 2008 through 2019.